sensor_id;sensor_type;location;lat;lon;timestamp;temperature;humidity
12889;DHT22;56848;49.896;11.424;2022-09-25T07:14:02;10.20;99.90
12889;DHT22;56848;49.896;11.424;2022-09-25T07:16:28;11.10;99.90
12889;DHT22;56848;49.896;11.424;2022-09-25T07:18:58;11.10;99.90
12889;DHT22;56848;49.896;11.424;2022-09-25T07:21:28;11.10;99.90
12889;DHT22;56848;49.896;11.424;2022-09-25T07:23:56;11.20;99.90
12889;DHT22;56848;49.896;11.424;2022-09-25T07:26:28;11.20;99.90
12889;DHT22;56848;49.896;11.424;2022-09-25T07:28:55;11.30;99.90
12889;DHT22;56848;49.896;11.424;2022-09-25T07:31:26;11.50;99.90
12889;DHT22;56848;49.896;11.424;2022-09-25T07:33:52;11.30;99.90
12889;DHT22;56848;49.896;11.424;2022-09-25T07:36:18;11.30;99.90
12889;DHT22;56848;49.896;11.424;2022-09-25T07:38:50;11.30;99.90
12889;DHT22;56848;49.896;11.424;2022-09-25T07:41:17;11.30;99.90
12889;DHT22;56848;49.896;11.424;2022-09-25T07:43:44;11.30;99.90
12889;DHT22;56848;49.896;11.424;2022-09-25T07:46:10;11.30;99.90
12889;DHT22;56848;49.896;11.424;2022-09-25T07:48:36;11.40;99.90
12889;DHT22;56848;49.896;11.424;2022-09-25T07:51:08;11.40;99.90
12889;DHT22;56848;49.896;11.424;2022-09-25T07:53:34;11.50;99.90
12889;DHT22;56848;49.896;11.424;2022-09-25T07:56:01;11.50;99.90
12889;DHT22;56848;49.896;11.424;2022-09-25T07:58:27;11.60;99.90
12889;DHT22;56848;49.896;11.424;2022-09-25T08:00:53;11.60;99.90
12889;DHT22;56848;49.896;11.424;2022-09-25T08:03:20;11.70;99.90
12889;DHT22;56848;49.896;11.424;2022-09-25T08:05:46;11.60;99.90
12889;DHT22;56848;49.896;11.424;2022-09-25T08:08:12;11.60;99.90
12889;DHT22;56848;49.896;11.424;2022-09-25T08:10:37;11.70;99.90
12889;DHT22;56848;49.896;11.424;2022-09-25T08:13:03;11.80;99.90
12889;DHT22;56848;49.896;11.424;2022-09-25T08:15:29;11.80;99.90
12889;DHT22;56848;49.896;11.424;2022-09-25T08:17:54;11.90;99.90
12889;DHT22;56848;49.896;11.424;2022-09-25T08:20:20;11.90;99.90
12889;DHT22;56848;49.896;11.424;2022-09-25T08:22:45;12.00;99.90
12889;DHT22;56848;49.896;11.424;2022-09-25T08:25:12;12.00;99.90
12889;DHT22;56848;49.896;11.424;2022-09-25T08:27:37;12.10;99.90
12889;DHT22;56848;49.896;11.424;2022-09-25T08:30:09;12.20;99.90
12889;DHT22;56848;49.896;11.424;2022-09-25T08:32:36;12.30;99.90
12889;DHT22;56848;49.896;11.424;2022-09-25T08:35:02;12.30;99.90
12889;DHT22;56848;49.896;11.424;2022-09-25T08:37:28;12.30;99.90
12889;DHT22;56848;49.896;11.424;2022-09-25T08:39:57;12.30;99.90
12889;DHT22;56848;49.896;11.424;2022-09-25T08:42:30;12.40;99.90
12889;DHT22;56848;49.896;11.424;2022-09-25T08:45:00;12.50;99.90
12889;DHT22;56848;49.896;11.424;2022-09-25T08:47:45;12.60;99.90
12889;DHT22;56848;49.896;11.424;2022-09-25T08:50:30;12.80;99.90
12889;DHT22;56848;49.896;11.424;2022-09-25T08:53:19;12.80;99.90
12889;DHT22;56848;49.896;11.424;2022-09-25T08:55:46;12.80;99.90
12889;DHT22;56848;49.896;11.424;2022-09-25T08:59:02;12.90;99.90
12889;DHT22;56848;49.896;11.424;2022-09-25T09:01:43;13.20;99.90
12889;DHT22;56848;49.896;11.424;2022-09-25T09:04:34;13.20;99.90
12889;DHT22;56848;49.896;11.424;2022-09-25T09:07:08;13.20;99.90
12889;DHT22;56848;49.896;11.424;2022-09-25T09:09:44;13.20;99.90
12889;DHT22;56848;49.896;11.424;2022-09-25T09:12:33;13.60;99.90
12889;DHT22;56848;49.896;11.424;2022-09-25T09:15:33;13.30;99.90
12889;DHT22;56848;49.896;11.424;2022-09-25T09:18:13;13.40;99.90
12889;DHT22;56848;49.896;11.424;2022-09-25T09:20:52;13.50;99.90
12889;DHT22;56848;49.896;11.424;2022-09-25T09:23:20;13.60;99.90
12889;DHT22;56848;49.896;11.424;2022-09-25T09:25:58;13.80;99.90
12889;DHT22;56848;49.896;11.424;2022-09-25T09:34:54;14.10;99.90
12889;DHT22;56848;49.896;11.424;2022-09-25T09:43:04;14.50;99.90
12889;DHT22;56848;49.896;11.424;2022-09-25T09:46:26;14.50;99.90
12889;DHT22;56848;49.896;11.424;2022-09-25T09:54:43;14.60;99.90
12889;DHT22;56848;49.896;11.424;2022-09-25T09:57:44;14.80;99.90
12889;DHT22;56848;49.896;11.424;2022-09-25T10:00:16;15.20;99.90
12889;DHT22;56848;49.896;11.424;2022-09-25T10:02:51;15.40;99.90
12889;DHT22;56848;49.896;11.424;2022-09-25T10:05:26;15.40;99.90
12889;DHT22;56848;49.896;11.424;2022-09-25T10:07:52;15.00;99.90
12889;DHT22;56848;49.896;11.424;2022-09-25T10:10:19;15.00;99.90
12889;DHT22;56848;49.896;11.424;2022-09-25T10:12:50;15.30;99.90
12889;DHT22;56848;49.896;11.424;2022-09-25T10:15:38;15.50;99.90
12889;DHT22;56848;49.896;11.424;2022-09-25T10:18:06;15.40;99.90
12889;DHT22;56848;49.896;11.424;2022-09-25T10:25:49;15.30;99.90
12889;DHT22;56848;49.896;11.424;2022-09-25T10:28:30;15.30;99.90
12889;DHT22;56848;49.896;11.424;2022-09-25T10:30:57;15.40;99.90
12889;DHT22;56848;49.896;11.424;2022-09-25T10:33:29;15.40;99.90
12889;DHT22;56848;49.896;11.424;2022-09-25T10:35:55;15.30;99.90
12889;DHT22;56848;49.896;11.424;2022-09-25T10:38:43;15.30;99.90
12889;DHT22;56848;49.896;11.424;2022-09-25T10:41:18;15.40;99.90
12889;DHT22;56848;49.896;11.424;2022-09-25T10:44:00;15.50;99.90
12889;DHT22;56848;49.896;11.424;2022-09-25T10:46:31;15.40;99.90
12889;DHT22;56848;49.896;11.424;2022-09-25T10:49:24;15.40;99.90
12889;DHT22;56848;49.896;11.424;2022-09-25T10:52:14;15.40;99.90
12889;DHT22;56848;49.896;11.424;2022-09-25T10:54:40;15.30;99.90
12889;DHT22;56848;49.896;11.424;2022-09-25T10:57:31;15.30;99.90
12889;DHT22;56848;49.896;11.424;2022-09-25T11:00:05;15.20;99.90
12889;DHT22;56848;49.896;11.424;2022-09-25T11:02:38;15.20;99.90
12889;DHT22;56848;49.896;11.424;2022-09-25T11:05:06;15.10;99.90
12889;DHT22;56848;49.896;11.424;2022-09-25T11:07:38;15.10;99.90
12889;DHT22;56848;49.896;11.424;2022-09-25T11:10:04;15.10;99.90
12889;DHT22;56848;49.896;11.424;2022-09-25T11:12:30;15.00;99.90
12889;DHT22;56848;49.896;11.424;2022-09-25T11:15:02;14.90;99.90
12889;DHT22;56848;49.896;11.424;2022-09-25T11:17:41;14.90;99.90
12889;DHT22;56848;49.896;11.424;2022-09-25T11:23:23;15.60;99.90
12889;DHT22;56848;49.896;11.424;2022-09-25T11:26:07;15.90;99.90
12889;DHT22;56848;49.896;11.424;2022-09-25T11:31:36;16.10;99.90
12889;DHT22;56848;49.896;11.424;2022-09-25T11:39:51;15.90;99.90
12889;DHT22;56848;49.896;11.424;2022-09-25T11:42:53;16.00;99.90
12889;DHT22;56848;49.896;11.424;2022-09-25T13:26:18;16.10;99.90
12889;DHT22;56848;49.896;11.424;2022-09-25T13:28:55;11.70;99.90
12889;DHT22;56848;49.896;11.424;2022-09-25T13:31:26;11.80;99.90
12889;DHT22;56848;49.896;11.424;2022-09-25T13:39:06;12.20;99.90
12889;DHT22;56848;49.896;11.424;2022-09-25T13:42:27;12.20;99.90
12889;DHT22;56848;49.896;11.424;2022-09-25T13:45:03;12.10;99.90
12889;DHT22;56848;49.896;11.424;2022-09-25T13:48:03;12.40;99.90
12889;DHT22;56848;49.896;11.424;2022-09-25T13:50:28;12.40;99.90
12889;DHT22;56848;49.896;11.424;2022-09-25T13:58:24;12.70;99.90
12889;DHT22;56848;49.896;11.424;2022-09-25T14:06:01;12.50;99.90
12889;DHT22;56848;49.896;11.424;2022-09-25T14:08:29;12.70;99.90
12889;DHT22;56848;49.896;11.424;2022-09-25T14:10:57;12.80;99.90
12889;DHT22;56848;49.896;11.424;2022-09-25T14:13:25;12.70;99.90
12889;DHT22;56848;49.896;11.424;2022-09-25T14:15:55;12.70;99.90
12889;DHT22;56848;49.896;11.424;2022-09-25T14:18:25;12.60;99.90
12889;DHT22;56848;49.896;11.424;2022-09-25T14:20:56;12.90;99.90
12889;DHT22;56848;49.896;11.424;2022-09-25T14:23:25;12.80;99.90
12889;DHT22;56848;49.896;11.424;2022-09-25T14:26:02;12.60;99.90
12889;DHT22;56848;49.896;11.424;2022-09-25T14:28:33;12.70;99.90
12889;DHT22;56848;49.896;11.424;2022-09-25T14:45:53;12.70;99.90
12889;DHT22;56848;49.896;11.424;2022-09-25T14:48:26;12.70;99.90
12889;DHT22;56848;49.896;11.424;2022-09-25T14:50:56;12.70;99.90
12889;DHT22;56848;49.896;11.424;2022-09-25T14:53:31;12.60;99.90
12889;DHT22;56848;49.896;11.424;2022-09-25T14:55:58;12.60;99.90
12889;DHT22;56848;49.896;11.424;2022-09-25T14:58:29;12.60;99.90
12889;DHT22;56848;49.896;11.424;2022-09-25T15:01:02;12.50;99.90
12889;DHT22;56848;49.896;11.424;2022-09-25T15:03:30;12.50;99.90
12889;DHT22;56848;49.896;11.424;2022-09-25T15:06:00;12.50;99.90
12889;DHT22;56848;49.896;11.424;2022-09-25T15:11:10;12.60;99.90
12889;DHT22;56848;49.896;11.424;2022-09-25T15:13:36;12.60;99.90
12889;DHT22;56848;49.896;11.424;2022-09-25T15:16:03;12.60;99.90
12889;DHT22;56848;49.896;11.424;2022-09-25T15:18:53;12.60;99.90
12889;DHT22;56848;49.896;11.424;2022-09-25T15:21:29;12.50;99.90
12889;DHT22;56848;49.896;11.424;2022-09-25T15:23:58;12.50;99.90
12889;DHT22;56848;49.896;11.424;2022-09-25T15:26:26;12.50;99.90
12889;DHT22;56848;49.896;11.424;2022-09-25T15:28:53;12.50;99.90
12889;DHT22;56848;49.896;11.424;2022-09-25T15:31:19;12.60;99.90
12889;DHT22;56848;49.896;11.424;2022-09-25T15:34:00;12.50;99.90
12889;DHT22;56848;49.896;11.424;2022-09-25T15:36:26;12.40;99.90
12889;DHT22;56848;49.896;11.424;2022-09-25T15:38:54;12.40;99.90
12889;DHT22;56848;49.896;11.424;2022-09-25T15:41:21;12.40;99.90
12889;DHT22;56848;49.896;11.424;2022-09-25T15:43:49;12.30;99.90
12889;DHT22;56848;49.896;11.424;2022-09-25T15:48:55;12.30;99.90
12889;DHT22;56848;49.896;11.424;2022-09-25T15:51:28;12.20;99.90
12889;DHT22;56848;49.896;11.424;2022-09-25T15:53:57;12.20;99.90
12889;DHT22;56848;49.896;11.424;2022-09-25T15:56:27;12.10;99.90
12889;DHT22;56848;49.896;11.424;2022-09-25T15:59:00;12.10;99.90
12889;DHT22;56848;49.896;11.424;2022-09-25T16:01:30;12.20;99.90
12889;DHT22;56848;49.896;11.424;2022-09-25T16:04:21;12.10;99.90
12889;DHT22;56848;49.896;11.424;2022-09-25T16:07:21;12.20;99.90
12889;DHT22;56848;49.896;11.424;2022-09-25T16:09:48;12.20;99.90
12889;DHT22;56848;49.896;11.424;2022-09-25T16:12:25;12.10;99.90
12889;DHT22;56848;49.896;11.424;2022-09-25T16:14:55;12.10;99.90
12889;DHT22;56848;49.896;11.424;2022-09-25T16:17:25;12.10;99.90
12889;DHT22;56848;49.896;11.424;2022-09-25T16:19:59;12.10;99.90
12889;DHT22;56848;49.896;11.424;2022-09-25T16:22:26;12.10;99.90
12889;DHT22;56848;49.896;11.424;2022-09-25T16:24:53;12.00;99.90
12889;DHT22;56848;49.896;11.424;2022-09-25T16:27:30;12.00;99.90
12889;DHT22;56848;49.896;11.424;2022-09-25T16:29:57;12.00;99.90
12889;DHT22;56848;49.896;11.424;2022-09-25T16:32:24;12.00;99.90
12889;DHT22;56848;49.896;11.424;2022-09-25T16:35:02;12.00;99.90
12889;DHT22;56848;49.896;11.424;2022-09-25T16:37:33;12.00;99.90
12889;DHT22;56848;49.896;11.424;2022-09-25T16:40:25;11.80;99.90
12889;DHT22;56848;49.896;11.424;2022-09-25T16:42:55;11.80;99.90
12889;DHT22;56848;49.896;11.424;2022-09-25T16:47:56;11.80;99.90
12889;DHT22;56848;49.896;11.424;2022-09-25T16:50:27;11.80;99.90
12889;DHT22;56848;49.896;11.424;2022-09-25T16:52:56;11.80;99.90
12889;DHT22;56848;49.896;11.424;2022-09-25T16:55:23;11.80;99.90
12889;DHT22;56848;49.896;11.424;2022-09-25T16:57:52;11.80;99.90
12889;DHT22;56848;49.896;11.424;2022-09-25T17:00:24;11.80;99.90
12889;DHT22;56848;49.896;11.424;2022-09-25T17:02:51;11.70;99.90
12889;DHT22;56848;49.896;11.424;2022-09-25T17:05:25;11.80;99.90
12889;DHT22;56848;49.896;11.424;2022-09-25T17:07:53;11.70;99.90
12889;DHT22;56848;49.896;11.424;2022-09-25T17:10:22;11.70;99.90
12889;DHT22;56848;49.896;11.424;2022-09-25T17:12:51;11.70;99.90
12889;DHT22;56848;49.896;11.424;2022-09-25T17:15:29;11.60;99.90
12889;DHT22;56848;49.896;11.424;2022-09-25T17:17:57;11.50;99.90
12889;DHT22;56848;49.896;11.424;2022-09-25T17:20:26;11.50;99.90
12889;DHT22;56848;49.896;11.424;2022-09-25T17:22:52;11.50;99.90
12889;DHT22;56848;49.896;11.424;2022-09-25T17:25:28;11.50;99.90
12889;DHT22;56848;49.896;11.424;2022-09-25T17:28:02;11.50;99.90
12889;DHT22;56848;49.896;11.424;2022-09-25T17:30:28;11.40;99.90
12889;DHT22;56848;49.896;11.424;2022-09-25T17:32:53;11.40;99.90
12889;DHT22;56848;49.896;11.424;2022-09-25T17:35:45;11.30;99.90
12889;DHT22;56848;49.896;11.424;2022-09-25T17:38:11;11.20;99.90
12889;DHT22;56848;49.896;11.424;2022-09-25T17:40:40;11.10;99.90
12889;DHT22;56848;49.896;11.424;2022-09-25T17:43:09;11.00;99.90
12889;DHT22;56848;49.896;11.424;2022-09-25T17:45:46;11.00;99.90
12889;DHT22;56848;49.896;11.424;2022-09-25T17:48:17;11.20;99.90
12889;DHT22;56848;49.896;11.424;2022-09-25T17:50:53;11.10;99.90
12889;DHT22;56848;49.896;11.424;2022-09-25T17:53:21;11.10;99.90
12889;DHT22;56848;49.896;11.424;2022-09-25T17:55:47;11.10;99.90
12889;DHT22;56848;49.896;11.424;2022-09-25T17:58:16;11.10;99.90
12889;DHT22;56848;49.896;11.424;2022-09-25T18:00:42;11.20;99.90
12889;DHT22;56848;49.896;11.424;2022-09-25T18:03:12;11.10;99.90
12889;DHT22;56848;49.896;11.424;2022-09-25T18:05:38;11.30;99.90
12889;DHT22;56848;49.896;11.424;2022-09-25T18:08:04;11.10;99.90
12889;DHT22;56848;49.896;11.424;2022-09-25T18:10:30;11.30;99.90
12889;DHT22;56848;49.896;11.424;2022-09-25T18:12:58;11.40;99.90
12889;DHT22;56848;49.896;11.424;2022-09-25T18:15:25;11.20;99.90
12889;DHT22;56848;49.896;11.424;2022-09-25T18:17:51;11.20;99.90
12889;DHT22;56848;49.896;11.424;2022-09-25T18:20:17;11.20;99.90
12889;DHT22;56848;49.896;11.424;2022-09-25T18:23:01;11.20;99.90
12889;DHT22;56848;49.896;11.424;2022-09-25T18:25:27;11.10;99.90
12889;DHT22;56848;49.896;11.424;2022-09-25T18:27:53;11.10;99.90
12889;DHT22;56848;49.896;11.424;2022-09-25T18:30:20;11.20;99.90
12889;DHT22;56848;49.896;11.424;2022-09-25T18:32:47;11.20;99.90
12889;DHT22;56848;49.896;11.424;2022-09-25T18:35:14;11.10;99.90
12889;DHT22;56848;49.896;11.424;2022-09-25T18:37:41;11.10;99.90
12889;DHT22;56848;49.896;11.424;2022-09-25T18:40:08;11.20;99.90
12889;DHT22;56848;49.896;11.424;2022-09-25T18:42:34;11.20;99.90
12889;DHT22;56848;49.896;11.424;2022-09-25T18:44:59;11.20;99.90
12889;DHT22;56848;49.896;11.424;2022-09-25T18:47:26;11.20;99.90
12889;DHT22;56848;49.896;11.424;2022-09-25T18:49:52;11.20;99.90
12889;DHT22;56848;49.896;11.424;2022-09-25T18:52:17;11.20;99.90
12889;DHT22;56848;49.896;11.424;2022-09-25T18:54:44;11.10;99.90
12889;DHT22;56848;49.896;11.424;2022-09-25T18:57:10;11.00;99.90
12889;DHT22;56848;49.896;11.424;2022-09-25T18:59:36;10.90;99.90
12889;DHT22;56848;49.896;11.424;2022-09-25T19:02:03;10.90;99.90
12889;DHT22;56848;49.896;11.424;2022-09-25T19:04:29;10.90;99.90
12889;DHT22;56848;49.896;11.424;2022-09-25T19:06:54;10.90;99.90
12889;DHT22;56848;49.896;11.424;2022-09-25T19:09:21;11.00;99.90
12889;DHT22;56848;49.896;11.424;2022-09-25T19:11:52;11.00;99.90
12889;DHT22;56848;49.896;11.424;2022-09-25T19:14:20;11.10;99.90
12889;DHT22;56848;49.896;11.424;2022-09-25T19:16:45;11.10;99.90
12889;DHT22;56848;49.896;11.424;2022-09-25T19:19:17;11.20;99.90
12889;DHT22;56848;49.896;11.424;2022-09-25T19:21:43;11.20;99.90
12889;DHT22;56848;49.896;11.424;2022-09-25T19:24:09;11.30;99.90
12889;DHT22;56848;49.896;11.424;2022-09-25T19:26:35;11.30;99.90
12889;DHT22;56848;49.896;11.424;2022-09-25T19:29:02;11.30;99.90
12889;DHT22;56848;49.896;11.424;2022-09-25T19:31:29;11.40;99.90
12889;DHT22;56848;49.896;11.424;2022-09-25T19:33:57;11.40;99.90
12889;DHT22;56848;49.896;11.424;2022-09-25T19:36:28;11.30;99.90
12889;DHT22;56848;49.896;11.424;2022-09-25T19:38:59;11.30;99.90
12889;DHT22;56848;49.896;11.424;2022-09-25T19:41:27;11.30;99.90
12889;DHT22;56848;49.896;11.424;2022-09-25T19:43:55;11.30;99.90
12889;DHT22;56848;49.896;11.424;2022-09-25T19:46:22;11.30;99.90
12889;DHT22;56848;49.896;11.424;2022-09-25T19:48:48;11.30;99.90
12889;DHT22;56848;49.896;11.424;2022-09-25T19:51:16;11.30;99.90
12889;DHT22;56848;49.896;11.424;2022-09-25T19:53:42;11.20;99.90
12889;DHT22;56848;49.896;11.424;2022-09-25T19:56:09;11.20;99.90
12889;DHT22;56848;49.896;11.424;2022-09-25T19:58:35;11.20;99.90
12889;DHT22;56848;49.896;11.424;2022-09-25T20:01:11;11.20;99.90
12889;DHT22;56848;49.896;11.424;2022-09-25T20:03:37;11.20;99.90
12889;DHT22;56848;49.896;11.424;2022-09-25T20:06:03;11.20;99.90
12889;DHT22;56848;49.896;11.424;2022-09-25T20:08:29;11.20;99.90
12889;DHT22;56848;49.896;11.424;2022-09-25T20:10:55;11.30;99.90
12889;DHT22;56848;49.896;11.424;2022-09-25T20:13:21;11.20;99.90
12889;DHT22;56848;49.896;11.424;2022-09-25T20:15:47;11.20;99.90
12889;DHT22;56848;49.896;11.424;2022-09-25T20:18:14;11.20;99.90
